Popcorn, Indiana
Current Conditions -  °F | °C
As of 6:53 AM on Monday 20 Oct 2014 (Local Time) from KBMG Reporting Station
Broken Clouds Broken Clouds  
Wind Chill: 50°   Ceiling: 10000
Heat Index: 50°   Visibility: 10mi
Dew Point: 45°   Wind: 5mph
Humidity: 83%   Direction: 210°SSW
Pressure: 29.98"   Gusts: NA
Location:  38.9483°N, 86.6278°W
Report Text: KBMG 201053Z AUTO 21004KT 10SM BKN100 10/07 A2998 RMK AO2 SLP151 T01000072
Loading
Personal Weather Stations






























Interactive Weather Map
Tropical Storm Tracking
New forecast layout! Learn more

10-Day Weather Forecast

Advertisements
Track Severe Weather on mobile